createdAt,value
2018-06-20T00:01:24.914Z,16.79
2018-06-20T00:03:54.998Z,16.68
2018-06-20T00:06:24.118Z,16.78
2018-06-20T00:08:53.970Z,16.85
2018-06-20T00:11:24.550Z,16.76
2018-06-20T00:13:54.619Z,16.79
2018-06-20T00:16:24.180Z,16.71
2018-06-20T00:18:53.323Z,16.67
2018-06-20T00:21:22.543Z,16.73
2018-06-20T00:23:51.631Z,16.67
2018-06-20T00:26:20.750Z,16.58
2018-06-20T00:28:49.850Z,16.56
2018-06-20T00:31:19.706Z,16.52
2018-06-20T00:33:48.826Z,16.45
2018-06-20T00:36:17.918Z,16.51
2018-06-20T00:38:46.996Z,16.36
2018-06-20T00:41:16.138Z,16.26
2018-06-20T00:43:45.230Z,16.25
2018-06-20T00:46:14.358Z,16.26
2018-06-20T00:48:43.459Z,16.30
2018-06-20T00:51:12.591Z,16.22
2018-06-20T00:53:42.483Z,16.28
2018-06-20T00:56:23.414Z,16.12
2018-06-20T00:58:52.554Z,16.07
2018-06-20T01:01:22.358Z,16.15
2018-06-20T01:03:52.005Z,16.11
2018-06-20T01:06:21.212Z,16.11
2018-06-20T01:08:54.394Z,15.99
2018-06-20T01:11:23.829Z,15.99
2018-06-20T01:13:52.957Z,15.91
2018-06-20T01:16:22.147Z,15.87
2018-06-20T01:18:51.909Z,15.94
2018-06-20T01:21:21.306Z,15.93
2018-06-20T01:23:50.443Z,15.92
2018-06-20T01:26:19.527Z,15.84
2018-06-20T01:28:48.636Z,15.83
2018-06-20T01:31:17.774Z,15.86
2018-06-20T01:33:47.198Z,15.64
2018-06-20T01:36:16.298Z,15.61
2018-06-20T01:38:45.418Z,15.64
2018-06-20T01:41:14.960Z,15.59
2018-06-20T01:43:44.081Z,15.47
2018-06-20T01:46:13.192Z,15.55
2018-06-20T01:48:42.286Z,15.67
2018-06-20T01:51:11.406Z,15.52
2018-06-20T01:53:40.494Z,15.49
2018-06-20T01:56:09.582Z,15.51
2018-06-20T01:58:39.398Z,15.57
2018-06-20T02:01:08.487Z,15.53
2018-06-20T02:03:37.603Z,15.51
2018-06-20T02:06:06.730Z,15.56
2018-06-20T02:08:35.819Z,15.60
2018-06-20T02:11:05.674Z,15.55
2018-06-20T02:13:35.343Z,15.50
2018-06-20T02:16:04.494Z,15.36
2018-06-20T02:18:33.592Z,15.28
2018-06-20T02:21:02.690Z,15.18
2018-06-20T02:23:31.742Z,15.15
2018-06-20T02:26:00.846Z,15.11
2018-06-20T02:28:29.961Z,15.12
2018-06-20T02:30:59.267Z,15.04
2018-06-20T02:33:28.398Z,14.93
2018-06-20T02:36:01.854Z,15.01
2018-06-20T02:38:30.942Z,15.00
2018-06-20T02:41:00.042Z,14.92
2018-06-20T02:43:29.134Z,14.84
2018-06-20T02:46:06.479Z,14.87
2018-06-20T02:48:35.335Z,14.79
2018-06-20T02:51:04.451Z,14.77
2018-06-20T02:53:33.547Z,14.74
2018-06-20T02:56:06.465Z,14.79
2018-06-20T02:58:35.600Z,14.83
2018-06-20T03:01:04.803Z,14.82
2018-06-20T03:03:33.923Z,14.75
2018-06-20T03:06:03.204Z,14.77
2018-06-20T03:08:32.282Z,14.81
2018-06-20T03:11:01.387Z,14.89
2018-06-20T03:13:30.482Z,14.95
2018-06-20T03:15:59.652Z,15.11
2018-06-20T03:18:28.912Z,15.12
2018-06-20T03:20:58.188Z,15.14
2018-06-20T03:23:27.322Z,15.00
2018-06-20T03:25:56.428Z,14.95
2018-06-20T03:28:25.540Z,14.93
2018-06-20T03:30:54.682Z,14.94
2018-06-20T03:33:23.838Z,14.95
2018-06-20T03:35:52.935Z,14.94
2018-06-20T03:38:22.039Z,15.05
2018-06-20T03:40:51.126Z,15.08
2018-06-20T03:43:20.230Z,15.14
2018-06-20T03:45:49.329Z,15.21
2018-06-20T03:48:18.430Z,15.30
2018-06-20T03:50:47.519Z,15.14
2018-06-20T03:53:16.634Z,15.13
2018-06-20T03:55:45.784Z,15.25
2018-06-20T03:58:14.872Z,15.29
2018-06-20T04:00:44.799Z,15.44
2018-06-20T04:03:13.907Z,15.78
2018-06-20T04:05:43.008Z,16.37
2018-06-20T04:08:12.218Z,16.89
2018-06-20T04:10:41.342Z,17.30
2018-06-20T04:13:13.539Z,17.54
2018-06-20T04:15:42.750Z,18.08
2018-06-20T04:18:11.950Z,18.78
2018-06-20T04:20:41.174Z,19.45
2018-06-20T04:23:10.266Z,19.86
2018-06-20T04:25:39.382Z,20.52
2018-06-20T04:28:08.551Z,20.55
2018-06-20T04:30:38.076Z,21.18
2018-06-20T04:33:07.138Z,21.85
2018-06-20T04:35:36.253Z,22.12
2018-06-20T04:38:05.320Z,23.10
2018-06-20T04:40:34.403Z,23.31
2018-06-20T04:43:04.333Z,23.55
2018-06-20T04:45:33.393Z,23.96
2018-06-20T04:48:02.474Z,24.06
2018-06-20T04:50:31.574Z,24.33
2018-06-20T04:53:00.639Z,23.86
2018-06-20T04:55:29.794Z,23.69
2018-06-20T04:57:58.854Z,23.24
2018-06-20T05:00:27.927Z,23.59
2018-06-20T05:02:57.018Z,23.54
2018-06-20T05:05:26.199Z,23.85
2018-06-20T05:07:55.330Z,23.93
2018-06-20T05:10:24.403Z,24.62
2018-06-20T05:12:53.533Z,24.17
2018-06-20T05:15:22.614Z,24.89
2018-06-20T05:17:52.382Z,26.11
2018-06-20T05:20:22.067Z,25.97
2018-06-20T05:22:51.199Z,25.74
2018-06-20T05:25:20.366Z,26.18
2018-06-20T05:27:49.504Z,26.11
2018-06-20T05:30:18.612Z,25.79
2018-06-20T05:32:47.850Z,26.35
2018-06-20T05:35:16.972Z,27.17
2018-06-20T05:37:46.084Z,27.19
2018-06-20T05:40:15.287Z,27.97
2018-06-20T05:42:44.415Z,27.71
2018-06-20T05:45:13.611Z,27.53
2018-06-20T05:47:42.779Z,28.86
2018-06-20T05:50:11.883Z,28.73
2018-06-20T05:52:40.960Z,29.44
2018-06-20T05:55:10.097Z,29.73
2018-06-20T05:57:39.206Z,29.31
2018-06-20T06:00:09.038Z,29.79
2018-06-20T06:02:38.214Z,30.58
2018-06-20T06:05:09.204Z,30.90
2018-06-20T06:07:38.226Z,30.18
2018-06-20T06:10:12.466Z,29.65
2018-06-20T06:12:42.475Z,30.15
2018-06-20T06:15:12.163Z,30.60
2018-06-20T06:17:41.495Z,30.33
2018-06-20T06:20:11.335Z,30.00
2018-06-20T06:22:41.163Z,28.72
2018-06-20T06:25:11.210Z,28.58
2018-06-20T06:27:40.358Z,30.58
2018-06-20T06:30:09.555Z,31.45
2018-06-20T06:32:38.819Z,32.45
2018-06-20T06:35:07.911Z,31.95
2018-06-20T06:37:37.488Z,31.21
2018-06-20T06:40:06.898Z,31.67
2018-06-20T06:42:36.195Z,32.81
2018-06-20T06:45:05.451Z,32.59
2018-06-20T06:47:34.647Z,33.57
2018-06-20T06:50:03.843Z,33.50
2018-06-20T06:52:32.947Z,33.70
2018-06-20T06:55:02.512Z,34.24
2018-06-20T06:57:32.003Z,34.33
2018-06-20T07:00:01.132Z,33.34
2018-06-20T07:02:30.211Z,33.66
2018-06-20T07:04:59.278Z,34.20
2018-06-20T07:07:28.402Z,33.76
2018-06-20T07:09:57.622Z,34.15
2018-06-20T07:12:26.882Z,33.59
2018-06-20T07:14:56.043Z,34.72
2018-06-20T07:17:25.212Z,35.55
2018-06-20T07:19:54.348Z,35.29
2018-06-20T07:22:24.190Z,35.91
2018-06-20T07:24:53.646Z,36.03
2018-06-20T07:27:22.919Z,36.11
2018-06-20T07:29:52.151Z,36.98
2018-06-20T07:32:21.470Z,36.76
2018-06-20T07:34:50.602Z,37.33
2018-06-20T07:37:19.936Z,36.05
2018-06-20T07:39:49.182Z,36.01
2018-06-20T07:42:18.439Z,35.58
2018-06-20T07:44:47.615Z,35.36
2018-06-20T07:47:16.711Z,36.38
2018-06-20T07:49:45.811Z,37.20
2018-06-20T07:52:14.982Z,37.26
2018-06-20T07:54:43.869Z,36.74
2018-06-20T07:57:12.978Z,37.24
2018-06-20T07:59:47.378Z,37.20
2018-06-20T08:02:38.682Z,38.80
2018-06-20T08:05:13.039Z,39.50
2018-06-20T08:07:47.304Z,37.89
2018-06-20T08:10:21.751Z,37.80
2018-06-20T08:12:56.019Z,38.72
2018-06-20T08:15:30.321Z,38.08
2018-06-20T08:18:04.759Z,37.97
2018-06-20T08:20:34.038Z,38.73
2018-06-20T08:23:03.115Z,38.69
2018-06-20T08:25:32.634Z,37.18
2018-06-20T08:28:01.715Z,36.70
2018-06-20T08:30:31.011Z,37.83
2018-06-20T08:33:00.306Z,38.98
2018-06-20T08:35:33.029Z,38.71
2018-06-20T08:38:03.119Z,39.39
2018-06-20T08:40:32.766Z,38.75
2018-06-20T08:43:02.148Z,35.93
2018-06-20T08:45:31.531Z,35.17
2018-06-20T08:48:00.715Z,36.27
2018-06-20T08:50:29.871Z,37.39
2018-06-20T08:52:59.010Z,38.68
2018-06-20T08:55:28.382Z,39.66
2018-06-20T08:57:57.634Z,40.28
2018-06-20T09:00:32.040Z,40.34
2018-06-20T09:03:01.575Z,41.92
2018-06-20T09:05:35.995Z,37.72
2018-06-20T09:08:10.299Z,38.27
2018-06-20T09:10:44.598Z,40.46
2018-06-20T09:13:18.961Z,39.99
2018-06-20T09:15:53.331Z,41.37
2018-06-20T09:18:27.717Z,38.35
2018-06-20T09:20:57.214Z,40.17
2018-06-20T09:23:27.183Z,40.57
2018-06-20T09:25:56.069Z,36.79
2018-06-20T09:28:25.186Z,36.73
2018-06-20T09:30:54.834Z,40.82
2018-06-20T09:33:24.431Z,39.15
2018-06-20T09:35:53.579Z,38.41
2018-06-20T09:38:22.825Z,38.25
2018-06-20T09:40:51.947Z,38.80
2018-06-20T09:43:21.505Z,39.70
2018-06-20T09:45:50.794Z,39.03
2018-06-20T09:48:20.550Z,37.96
2018-06-20T09:50:57.716Z,38.47
2018-06-20T09:53:27.234Z,40.04
2018-06-20T09:55:56.307Z,40.98
2018-06-20T09:58:26.003Z,41.83
2018-06-20T10:01:01.822Z,41.18
2018-06-20T10:03:36.871Z,39.73
2018-06-20T10:06:11.160Z,40.79
2018-06-20T10:08:45.393Z,40.66
2018-06-20T10:11:19.703Z,40.79
2018-06-20T10:13:50.687Z,43.14
2018-06-20T10:16:19.778Z,42.19
2018-06-20T10:18:48.974Z,42.12
2018-06-20T10:21:18.178Z,43.25
2018-06-20T10:23:47.227Z,43.31
2018-06-20T10:26:16.306Z,43.46
2018-06-20T10:28:45.406Z,40.34
2018-06-20T10:31:14.491Z,41.76
2018-06-20T10:33:43.603Z,42.19
2018-06-20T10:36:12.711Z,42.77
2018-06-20T10:38:42.190Z,42.80
2018-06-20T10:41:11.550Z,43.28
2018-06-20T10:43:40.622Z,40.51
2018-06-20T10:46:14.985Z,41.69
2018-06-20T10:48:44.787Z,37.86
2018-06-20T10:51:13.847Z,38.34
2018-06-20T10:53:43.039Z,41.13
2018-06-20T10:56:12.163Z,41.87
2018-06-20T10:58:46.797Z,42.63
2018-06-20T11:01:21.651Z,44.09
2018-06-20T11:03:55.983Z,43.32
2018-06-20T11:06:30.633Z,44.93
2018-06-20T11:09:04.934Z,43.29
2018-06-20T11:11:39.364Z,42.65
2018-06-20T11:14:08.914Z,41.85
2018-06-20T11:16:38.059Z,43.31
2018-06-20T11:19:08.450Z,44.55
2018-06-20T11:21:37.843Z,42.56
2018-06-20T11:24:07.007Z,43.20
2018-06-20T11:26:36.162Z,43.46
2018-06-20T11:29:05.522Z,43.84
2018-06-20T11:31:34.703Z,39.14
2018-06-20T11:34:05.239Z,39.71
2018-06-20T11:36:34.362Z,41.16
2018-06-20T11:39:03.864Z,44.78
2018-06-20T11:41:32.958Z,44.98
2018-06-20T11:44:02.711Z,43.47
2018-06-20T11:46:37.414Z,44.28
2018-06-20T11:49:06.966Z,42.16
2018-06-20T11:51:36.086Z,43.70
2018-06-20T11:54:07.828Z,42.87
2018-06-20T11:56:36.959Z,43.51
2018-06-20T11:59:11.566Z,45.19
2018-06-20T12:01:46.031Z,43.17
2018-06-20T12:06:24.973Z,41.17
2018-06-20T12:08:59.335Z,40.02
2018-06-20T12:11:33.740Z,41.36
2018-06-20T12:14:08.247Z,42.23
2018-06-20T12:16:38.095Z,42.68
2018-06-20T12:19:12.588Z,42.14
2018-06-20T12:21:47.038Z,36.14
2018-06-20T12:24:21.346Z,33.95
2018-06-20T12:26:55.706Z,34.98
2018-06-20T12:29:30.718Z,37.97
2018-06-20T12:32:05.215Z,40.67
2018-06-20T12:34:39.542Z,42.77
2018-06-20T12:37:13.846Z,45.41
2018-06-20T12:39:42.050Z,46.32
2018-06-20T12:42:16.382Z,46.08
2018-06-20T12:44:51.026Z,47.91
2018-06-20T12:47:23.978Z,46.22
2018-06-20T12:50:00.542Z,47.89
2018-06-20T12:52:31.648Z,46.65
2018-06-20T12:55:00.783Z,41.00
2018-06-20T12:57:29.912Z,39.23
2018-06-20T12:59:59.049Z,34.92
2018-06-20T13:02:28.165Z,37.46
2018-06-20T13:04:57.264Z,41.72
2018-06-20T13:07:26.373Z,44.36
2018-06-20T13:09:55.442Z,45.12
2018-06-20T13:12:25.267Z,46.07
2018-06-20T13:14:54.419Z,44.31
2018-06-20T13:17:23.495Z,43.92
2018-06-20T13:19:52.582Z,45.47
2018-06-20T13:22:21.938Z,45.13
2018-06-20T13:24:51.073Z,43.34
2018-06-20T13:27:25.338Z,44.59
2018-06-20T13:29:59.691Z,44.92
2018-06-20T13:32:34.234Z,45.65
2018-06-20T13:35:08.646Z,39.82
2018-06-20T13:37:42.967Z,42.99
2018-06-20T13:40:17.367Z,42.19
2018-06-20T13:44:54.595Z,43.82
2018-06-20T13:47:30.750Z,45.98
2018-06-20T13:50:00.478Z,41.56
2018-06-20T13:52:29.671Z,41.36
2018-06-20T13:54:58.795Z,42.88
2018-06-20T13:57:28.090Z,41.27
2018-06-20T13:59:57.406Z,43.89
2018-06-20T14:02:26.503Z,43.29
2018-06-20T14:04:55.582Z,43.48
2018-06-20T14:07:24.682Z,45.67
2018-06-20T14:09:53.751Z,45.66
2018-06-20T14:12:22.872Z,44.42
2018-06-20T14:14:52.519Z,45.01
2018-06-20T14:17:22.003Z,42.94
2018-06-20T14:19:56.334Z,44.77
2018-06-20T14:22:25.831Z,45.08
2018-06-20T14:24:54.906Z,45.13
2018-06-20T14:27:24.118Z,45.58
2018-06-20T14:29:53.191Z,46.60
2018-06-20T14:32:27.467Z,41.47
2018-06-20T14:35:01.956Z,43.57
2018-06-20T14:37:36.097Z,43.88
2018-06-20T14:42:14.419Z,43.73
2018-06-20T14:44:43.523Z,43.10
2018-06-20T14:47:12.704Z,42.20
2018-06-20T14:49:41.842Z,41.91
2018-06-20T14:52:11.027Z,42.55
2018-06-20T14:54:41.301Z,42.72
2018-06-20T14:57:10.443Z,41.68
2018-06-20T14:59:39.722Z,41.80
2018-06-20T15:02:09.195Z,42.63
2018-06-20T15:04:38.304Z,42.14
2018-06-20T15:07:07.495Z,39.38
2018-06-20T15:09:37.398Z,40.56
2018-06-20T15:12:08.365Z,42.15
2018-06-20T15:14:37.475Z,41.90
2018-06-20T15:17:11.786Z,40.01
2018-06-20T15:19:40.890Z,42.51
2018-06-20T15:22:10.012Z,41.19
2018-06-20T15:24:39.135Z,41.13
2018-06-20T15:27:13.572Z,41.88
2018-06-20T15:29:47.938Z,39.66
2018-06-20T15:32:22.322Z,39.06
2018-06-20T15:34:57.331Z,40.29
2018-06-20T15:37:31.690Z,40.79
2018-06-20T15:40:00.794Z,39.19
2018-06-20T15:42:29.987Z,37.77
2018-06-20T15:44:59.139Z,39.03
2018-06-20T15:47:28.267Z,39.95
2018-06-20T15:49:57.383Z,39.43
2018-06-20T15:52:27.243Z,39.72
2018-06-20T15:54:56.340Z,39.65
2018-06-20T15:57:25.482Z,39.65
2018-06-20T15:59:54.654Z,39.20
2018-06-20T16:02:24.179Z,39.47
2018-06-20T16:04:53.592Z,40.48
2018-06-20T16:07:23.003Z,39.29
2018-06-20T16:09:56.342Z,39.37
2018-06-20T16:12:25.955Z,39.42
2018-06-20T16:14:55.647Z,38.61
2018-06-20T16:17:24.801Z,38.46
2018-06-20T16:19:59.079Z,39.02
2018-06-20T16:22:33.385Z,39.46
2018-06-20T16:25:07.890Z,38.06
2018-06-20T16:27:42.739Z,38.77
2018-06-20T16:30:17.565Z,37.80
2018-06-20T16:32:46.720Z,37.74
2018-06-20T16:35:18.015Z,37.18
2018-06-20T16:37:47.864Z,37.76
2018-06-20T16:40:16.940Z,38.15
2018-06-20T16:42:46.077Z,37.56
2018-06-20T16:45:15.304Z,36.75
2018-06-20T16:47:44.657Z,36.84
2018-06-20T16:50:13.891Z,36.59
2018-06-20T16:52:43.198Z,36.74
2018-06-20T16:55:12.318Z,36.19
2018-06-20T16:57:41.434Z,36.07
2018-06-20T17:00:10.599Z,35.40
2018-06-20T17:02:41.631Z,35.39
2018-06-20T17:05:11.559Z,35.41
2018-06-20T17:07:40.879Z,35.32
2018-06-20T17:10:10.042Z,35.17
2018-06-20T17:12:44.434Z,35.41
2018-06-20T17:15:18.739Z,35.55
2018-06-20T17:17:53.307Z,35.19
2018-06-20T17:20:27.696Z,34.86
2018-06-20T17:23:02.035Z,34.73
2018-06-20T17:25:33.613Z,34.49
2018-06-20T17:28:02.903Z,34.63
2018-06-20T17:30:32.090Z,34.97
2018-06-20T17:33:01.465Z,34.79
2018-06-20T17:35:31.486Z,34.48
2018-06-20T17:38:01.430Z,34.12
2018-06-20T17:40:31.310Z,33.97
2018-06-20T17:43:00.576Z,33.97
2018-06-20T17:45:30.318Z,34.02
2018-06-20T17:48:00.231Z,33.88
2018-06-20T17:50:30.170Z,33.68
2018-06-20T17:53:00.091Z,33.47
2018-06-20T17:55:29.979Z,33.06
2018-06-20T17:57:59.869Z,32.91
2018-06-20T18:00:29.855Z,32.85
2018-06-20T18:02:59.736Z,33.19
2018-06-20T18:05:34.023Z,32.66
2018-06-20T18:08:08.866Z,33.07
2018-06-20T18:10:43.776Z,32.09
2018-06-20T18:13:15.897Z,31.82
2018-06-20T18:15:50.810Z,31.40
2018-06-20T18:18:20.395Z,31.02
2018-06-20T18:20:49.562Z,31.08
2018-06-20T18:23:18.838Z,31.52
2018-06-20T18:25:48.143Z,31.26
2018-06-20T18:28:17.694Z,30.53
2018-06-20T18:30:46.954Z,30.67
2018-06-20T18:33:16.787Z,30.36
2018-06-20T18:35:45.960Z,30.10
2018-06-20T18:38:15.617Z,30.09
2018-06-20T18:40:46.958Z,29.95
2018-06-20T18:43:16.196Z,29.88
2018-06-20T18:45:45.350Z,29.87
2018-06-20T18:48:20.810Z,29.55
2018-06-20T18:50:50.051Z,29.28
2018-06-20T18:53:19.315Z,29.01
2018-06-20T18:55:49.275Z,28.84
2018-06-20T18:58:25.151Z,28.27
2018-06-20T19:01:00.608Z,27.88
2018-06-20T19:03:36.412Z,27.64
2018-06-20T19:06:11.851Z,27.39
2018-06-20T19:08:46.546Z,27.17
2018-06-20T19:11:15.634Z,26.93
2018-06-20T19:13:44.797Z,26.75
2018-06-20T19:16:14.003Z,26.59
2018-06-20T19:18:43.196Z,26.53
2018-06-20T19:21:12.831Z,26.47
2018-06-20T19:23:42.087Z,26.34
2018-06-20T19:26:11.943Z,26.20
2018-06-20T19:28:41.146Z,25.96
2018-06-20T19:31:10.294Z,25.77
2018-06-20T19:33:40.114Z,25.69
2018-06-20T19:36:09.771Z,25.54
2018-06-20T19:38:39.030Z,25.51
2018-06-20T19:41:08.943Z,25.40
2018-06-20T19:43:43.374Z,25.41
2018-06-20T19:46:13.339Z,25.40
2018-06-20T19:48:42.494Z,25.50
2018-06-20T19:51:11.832Z,25.37
2018-06-20T19:53:41.235Z,25.28
2018-06-20T19:56:10.963Z,25.08
2018-06-20T19:58:40.245Z,25.05
2018-06-20T20:01:09.514Z,24.88
2018-06-20T20:03:39.063Z,24.92
2018-06-20T20:06:08.279Z,24.78
2018-06-20T20:08:37.848Z,24.67
2018-06-20T20:11:07.226Z,24.61
2018-06-20T20:13:37.142Z,24.63
2018-06-20T20:16:07.004Z,24.48
2018-06-20T20:18:36.203Z,24.35
2018-06-20T20:21:05.458Z,24.16
2018-06-20T20:23:34.687Z,24.13
2018-06-20T20:26:03.872Z,24.12
2018-06-20T20:28:33.338Z,23.98
2018-06-20T20:31:03.240Z,23.92
2018-06-20T20:33:33.277Z,23.98
2018-06-20T20:36:02.467Z,23.93
2018-06-20T20:38:32.179Z,23.91
2018-06-20T20:41:01.677Z,23.76
2018-06-20T20:43:30.855Z,23.72
2018-06-20T20:46:00.305Z,23.68
2018-06-20T20:48:29.503Z,23.67
2018-06-20T20:50:58.703Z,23.56
2018-06-20T20:53:28.034Z,23.71
2018-06-20T20:55:57.478Z,23.51
2018-06-20T20:58:26.627Z,23.54
2018-06-20T21:00:55.764Z,23.49
2018-06-20T21:03:24.924Z,23.28
2018-06-20T21:05:57.395Z,23.09
2018-06-20T21:08:26.554Z,23.04
2018-06-20T21:10:56.115Z,22.82
2018-06-20T21:13:25.331Z,22.65
2018-06-20T21:15:54.534Z,22.67
2018-06-20T21:18:24.122Z,22.42
2018-06-20T21:20:53.247Z,22.28
2018-06-20T21:23:22.406Z,22.25
2018-06-20T21:25:51.555Z,22.24
2018-06-20T21:28:20.670Z,22.03
2018-06-20T21:30:49.798Z,21.95
2018-06-20T21:33:18.931Z,21.81
2018-06-20T21:35:48.123Z,21.77
2018-06-20T21:38:17.339Z,21.62
2018-06-20T21:40:46.963Z,21.46
2018-06-20T21:43:16.175Z,21.50
2018-06-20T21:45:46.427Z,21.44
2018-06-20T21:48:15.591Z,21.36
2018-06-20T21:50:44.698Z,21.32
2018-06-20T21:53:14.035Z,21.39
2018-06-20T21:55:43.135Z,21.46
2018-06-20T21:58:12.285Z,21.36
2018-06-20T22:00:41.725Z,21.19
2018-06-20T22:03:11.018Z,21.08
2018-06-20T22:05:40.080Z,21.11
2018-06-20T22:08:09.431Z,21.02
2018-06-20T22:10:38.623Z,20.99
2018-06-20T22:13:08.843Z,20.95
2018-06-20T22:15:38.079Z,20.95
2018-06-20T22:18:07.252Z,20.97
2018-06-20T22:20:36.406Z,20.92
2018-06-20T22:23:05.583Z,20.80
2018-06-20T22:25:35.540Z,20.69
2018-06-20T22:28:04.921Z,20.63
2018-06-20T22:30:34.061Z,20.62
2018-06-20T22:33:03.658Z,20.46
2018-06-20T22:35:32.860Z,20.51
2018-06-20T22:38:02.659Z,20.50
2018-06-20T22:40:31.906Z,20.45
2018-06-20T22:43:01.081Z,20.28
2018-06-20T22:45:30.246Z,20.15
2018-06-20T22:47:59.380Z,20.03
2018-06-20T22:50:28.930Z,20.08
2018-06-20T22:52:58.131Z,20.08
2018-06-20T22:55:28.011Z,20.01
2018-06-20T22:57:57.247Z,20.02
2018-06-20T23:00:26.391Z,19.93
2018-06-20T23:02:56.092Z,19.94
2018-06-20T23:05:25.257Z,19.79
2018-06-20T23:07:54.435Z,19.70
2018-06-20T23:10:24.021Z,19.86
2018-06-20T23:12:55.089Z,19.91
2018-06-20T23:15:24.932Z,19.87
2018-06-20T23:17:54.115Z,19.76
2018-06-20T23:20:23.239Z,19.62
2018-06-20T23:22:53.003Z,19.56
2018-06-20T23:25:22.158Z,19.55
2018-06-20T23:27:51.045Z,19.83
2018-06-20T23:30:20.228Z,20.12
2018-06-20T23:32:49.370Z,20.20
2018-06-20T23:35:18.475Z,20.11
2018-06-20T23:37:48.608Z,20.00
2018-06-20T23:40:17.735Z,19.84
2018-06-20T23:42:46.935Z,19.82
2018-06-20T23:45:16.419Z,19.73
2018-06-20T23:47:45.534Z,19.64
2018-06-20T23:50:15.433Z,19.61
2018-06-20T23:52:45.405Z,19.49
2018-06-20T23:55:14.540Z,19.51
2018-06-20T23:57:43.762Z,19.40
